sensor_id;sensor_type;location;lat;lon;timestamp;pressure;altitude;pressure_sealevel;temperature;humidity
9676;BME280;4876;42.656;23.292;2022-12-17T00:00:26;94092.13;;;5.64;100.00
9676;BME280;4876;42.656;23.292;2022-12-17T00:03:10;94081.09;;;5.86;100.00
9676;BME280;4876;42.656;23.292;2022-12-17T00:05:55;94091.84;;;5.66;100.00
9676;BME280;4876;42.656;23.292;2022-12-17T00:08:40;94102.09;;;5.44;100.00
9676;BME280;4876;42.656;23.292;2022-12-17T00:11:24;94096.75;;;5.54;100.00
9676;BME280;4876;42.656;23.292;2022-12-17T00:14:09;94075.78;;;5.59;100.00
9676;BME280;4876;42.656;23.292;2022-12-17T00:16:53;94080.16;;;5.63;100.00
9676;BME280;4876;42.656;23.292;2022-12-17T00:19:37;94090.22;;;5.70;100.00
9676;BME280;4876;42.656;23.292;2022-12-17T00:22:22;94102.56;;;5.64;100.00
9676;BME280;4876;42.656;23.292;2022-12-17T00:25:08;94098.59;;;5.86;100.00
9676;BME280;4876;42.656;23.292;2022-12-17T00:27:52;94083.72;;;5.86;100.00
9676;BME280;4876;42.656;23.292;2022-12-17T00:30:36;94102.72;;;6.06;100.00
9676;BME280;4876;42.656;23.292;2022-12-17T00:33:21;94091.72;;;6.09;100.00
9676;BME280;4876;42.656;23.292;2022-12-17T00:36:05;94072.56;;;6.13;100.00
9676;BME280;4876;42.656;23.292;2022-12-17T00:38:50;94090.00;;;6.32;100.00
9676;BME280;4876;42.656;23.292;2022-12-17T00:41:35;94096.69;;;6.24;100.00
9676;BME280;4876;42.656;23.292;2022-12-17T00:44:20;94087.69;;;6.30;100.00
9676;BME280;4876;42.656;23.292;2022-12-17T00:47:04;94084.56;;;6.14;100.00
9676;BME280;4876;42.656;23.292;2022-12-17T00:49:48;94087.78;;;6.25;100.00
9676;BME280;4876;42.656;23.292;2022-12-17T00:52:33;94071.25;;;6.43;100.00
9676;BME280;4876;42.656;23.292;2022-12-17T00:55:17;94093.31;;;6.51;100.00
9676;BME280;4876;42.656;23.292;2022-12-17T00:58:02;94069.53;;;6.53;100.00
9676;BME280;4876;42.656;23.292;2022-12-17T01:00:47;94075.91;;;6.60;100.00
9676;BME280;4876;42.656;23.292;2022-12-17T01:03:31;94074.75;;;6.66;100.00
9676;BME280;4876;42.656;23.292;2022-12-17T01:06:15;94078.16;;;6.53;100.00
9676;BME280;4876;42.656;23.292;2022-12-17T01:09:00;94076.09;;;6.64;100.00
9676;BME280;4876;42.656;23.292;2022-12-17T01:11:44;94085.38;;;6.42;100.00
9676;BME280;4876;42.656;23.292;2022-12-17T01:14:30;94061.03;;;6.47;100.00
9676;BME280;4876;42.656;23.292;2022-12-17T01:17:14;94089.47;;;6.48;100.00
9676;BME280;4876;42.656;23.292;2022-12-17T01:19:59;94046.47;;;6.27;100.00
9676;BME280;4876;42.656;23.292;2022-12-17T01:22:44;94097.38;;;6.43;100.00
9676;BME280;4876;42.656;23.292;2022-12-17T01:25:29;94075.03;;;6.51;100.00
9676;BME280;4876;42.656;23.292;2022-12-17T01:28:20;94082.38;;;6.63;100.00
9676;BME280;4876;42.656;23.292;2022-12-17T01:31:06;94088.38;;;6.50;100.00
9676;BME280;4876;42.656;23.292;2022-12-17T01:33:51;94082.31;;;6.40;100.00
9676;BME280;4876;42.656;23.292;2022-12-17T01:36:35;94100.97;;;6.47;100.00
9676;BME280;4876;42.656;23.292;2022-12-17T01:39:19;94077.06;;;6.54;100.00
9676;BME280;4876;42.656;23.292;2022-12-17T01:42:03;94077.16;;;6.63;100.00
9676;BME280;4876;42.656;23.292;2022-12-17T01:44:51;94074.56;;;6.63;100.00
9676;BME280;4876;42.656;23.292;2022-12-17T01:47:39;94083.44;;;6.75;100.00
9676;BME280;4876;42.656;23.292;2022-12-17T01:50:28;94074.19;;;6.83;100.00
9676;BME280;4876;42.656;23.292;2022-12-17T01:53:14;94055.09;;;6.69;100.00
9676;BME280;4876;42.656;23.292;2022-12-17T01:55:59;94075.13;;;6.87;100.00
9676;BME280;4876;42.656;23.292;2022-12-17T01:58:45;94054.19;;;7.01;100.00
9676;BME280;4876;42.656;23.292;2022-12-17T02:01:29;94075.28;;;7.05;100.00
9676;BME280;4876;42.656;23.292;2022-12-17T02:04:15;94058.66;;;7.00;100.00
9676;BME280;4876;42.656;23.292;2022-12-17T02:07:16;94067.66;;;6.94;100.00
9676;BME280;4876;42.656;23.292;2022-12-17T02:10:11;94057.16;;;6.72;100.00
9676;BME280;4876;42.656;23.292;2022-12-17T02:13:02;94059.41;;;7.01;100.00
9676;BME280;4876;42.656;23.292;2022-12-17T02:15:54;94028.19;;;6.82;100.00
9676;BME280;4876;42.656;23.292;2022-12-17T02:18:43;94061.09;;;6.83;100.00
9676;BME280;4876;42.656;23.292;2022-12-17T02:21:33;94058.47;;;6.97;100.00
9676;BME280;4876;42.656;23.292;2022-12-17T02:24:26;94041.78;;;7.07;100.00
9676;BME280;4876;42.656;23.292;2022-12-17T02:27:13;94055.84;;;6.97;100.00
9676;BME280;4876;42.656;23.292;2022-12-17T02:30:06;94019.84;;;6.94;100.00
9676;BME280;4876;42.656;23.292;2022-12-17T02:32:51;94029.56;;;7.16;100.00
9676;BME280;4876;42.656;23.292;2022-12-17T02:35:40;94001.13;;;7.00;100.00
9676;BME280;4876;42.656;23.292;2022-12-17T02:38:27;94037.13;;;7.17;100.00
9676;BME280;4876;42.656;23.292;2022-12-17T02:41:14;94048.81;;;7.20;100.00
9676;BME280;4876;42.656;23.292;2022-12-17T02:44:01;94036.75;;;7.10;100.00
9676;BME280;4876;42.656;23.292;2022-12-17T02:46:47;94028.59;;;7.12;100.00
9676;BME280;4876;42.656;23.292;2022-12-17T02:49:31;94026.09;;;7.07;100.00
9676;BME280;4876;42.656;23.292;2022-12-17T02:52:28;94024.44;;;7.11;100.00
9676;BME280;4876;42.656;23.292;2022-12-17T02:55:13;93999.19;;;7.06;100.00
9676;BME280;4876;42.656;23.292;2022-12-17T02:57:58;94007.47;;;7.22;100.00
9676;BME280;4876;42.656;23.292;2022-12-17T03:00:43;94007.72;;;7.34;100.00
9676;BME280;4876;42.656;23.292;2022-12-17T03:03:27;93999.38;;;7.10;100.00
9676;BME280;4876;42.656;23.292;2022-12-17T03:06:12;93993.44;;;7.18;100.00
9676;BME280;4876;42.656;23.292;2022-12-17T03:08:56;94007.88;;;7.15;100.00
9676;BME280;4876;42.656;23.292;2022-12-17T03:11:40;93982.16;;;7.09;100.00
9676;BME280;4876;42.656;23.292;2022-12-17T03:14:30;93987.53;;;7.12;100.00
9676;BME280;4876;42.656;23.292;2022-12-17T03:17:15;93974.16;;;7.14;100.00
9676;BME280;4876;42.656;23.292;2022-12-17T03:20:00;93999.19;;;7.06;100.00
9676;BME280;4876;42.656;23.292;2022-12-17T03:22:44;93976.16;;;6.94;100.00
9676;BME280;4876;42.656;23.292;2022-12-17T03:25:29;93981.53;;;6.75;100.00
9676;BME280;4876;42.656;23.292;2022-12-17T03:28:14;93990.38;;;6.66;100.00
9676;BME280;4876;42.656;23.292;2022-12-17T03:30:59;93990.78;;;6.59;100.00
9676;BME280;4876;42.656;23.292;2022-12-17T03:33:45;94003.13;;;6.81;100.00
9676;BME280;4876;42.656;23.292;2022-12-17T03:36:29;93994.19;;;6.96;100.00
9676;BME280;4876;42.656;23.292;2022-12-17T03:39:14;93985.69;;;6.90;100.00
9676;BME280;4876;42.656;23.292;2022-12-17T03:41:58;93976.16;;;6.94;100.00
9676;BME280;4876;42.656;23.292;2022-12-17T03:44:42;93995.13;;;7.00;100.00
9676;BME280;4876;42.656;23.292;2022-12-17T03:47:29;94019.16;;;7.02;100.00
9676;BME280;4876;42.656;23.292;2022-12-17T03:50:15;93992.16;;;6.93;100.00
9676;BME280;4876;42.656;23.292;2022-12-17T03:53:00;94011.28;;;7.16;100.00
9676;BME280;4876;42.656;23.292;2022-12-17T03:55:46;94003.78;;;7.23;100.00
9676;BME280;4876;42.656;23.292;2022-12-17T03:58:30;93985.38;;;7.28;100.00
9676;BME280;4876;42.656;23.292;2022-12-17T04:01:15;94003.41;;;7.38;100.00
9676;BME280;4876;42.656;23.292;2022-12-17T04:03:59;94004.69;;;7.41;100.00
9676;BME280;4876;42.656;23.292;2022-12-17T04:06:45;93990.94;;;7.35;100.00
9676;BME280;4876;42.656;23.292;2022-12-17T04:09:29;94017.59;;;7.60;100.00
9676;BME280;4876;42.656;23.292;2022-12-17T04:12:14;93985.97;;;7.47;100.00
9676;BME280;4876;42.656;23.292;2022-12-17T04:14:58;94009.19;;;7.71;100.00
9676;BME280;4876;42.656;23.292;2022-12-17T04:17:42;94017.75;;;7.63;100.00
9676;BME280;4876;42.656;23.292;2022-12-17T04:20:26;94009.69;;;7.82;100.00
9676;BME280;4876;42.656;23.292;2022-12-17T04:23:12;93988.53;;;7.70;100.00
9676;BME280;4876;42.656;23.292;2022-12-17T04:25:56;94010.75;;;7.72;100.00
9676;BME280;4876;42.656;23.292;2022-12-17T04:28:37;94017.69;;;7.77;100.00
9676;BME280;4876;42.656;23.292;2022-12-17T04:31:21;93993.28;;;7.59;100.00
9676;BME280;4876;42.656;23.292;2022-12-17T04:34:05;93997.22;;;7.79;100.00
9676;BME280;4876;42.656;23.292;2022-12-17T04:36:46;94000.66;;;7.88;100.00
9676;BME280;4876;42.656;23.292;2022-12-17T04:39:31;94005.66;;;8.07;100.00
9676;BME280;4876;42.656;23.292;2022-12-17T04:42:16;93986.75;;;7.79;100.00
9676;BME280;4876;42.656;23.292;2022-12-17T04:45:00;94033.03;;;7.70;100.00
9676;BME280;4876;42.656;23.292;2022-12-17T04:47:44;94026.97;;;7.83;100.00
9676;BME280;4876;42.656;23.292;2022-12-17T04:50:28;94034.53;;;7.85;100.00
9676;BME280;4876;42.656;23.292;2022-12-17T04:53:13;94053.50;;;7.90;100.00
9676;BME280;4876;42.656;23.292;2022-12-17T04:55:59;94048.41;;;7.94;100.00
9676;BME280;4876;42.656;23.292;2022-12-17T04:58:46;94059.50;;;7.91;100.00
9676;BME280;4876;42.656;23.292;2022-12-17T05:01:30;94053.13;;;8.05;100.00
9676;BME280;4876;42.656;23.292;2022-12-17T05:04:14;94071.78;;;8.13;100.00
9676;BME280;4876;42.656;23.292;2022-12-17T05:06:59;94052.03;;;8.06;100.00
9676;BME280;4876;42.656;23.292;2022-12-17T05:09:43;94087.16;;;8.05;100.00
9676;BME280;4876;42.656;23.292;2022-12-17T05:12:28;94057.91;;;7.81;100.00
9676;BME280;4876;42.656;23.292;2022-12-17T05:15:24;94057.19;;;7.89;100.00
9676;BME280;4876;42.656;23.292;2022-12-17T05:18:09;94087.75;;;8.02;100.00
9676;BME280;4876;42.656;23.292;2022-12-17T05:20:52;94095.22;;;8.18;100.00
9676;BME280;4876;42.656;23.292;2022-12-17T05:23:36;94069.22;;;8.21;100.00
9676;BME280;4876;42.656;23.292;2022-12-17T05:26:23;94084.38;;;8.33;100.00
9676;BME280;4876;42.656;23.292;2022-12-17T05:29:08;94080.28;;;8.18;100.00
9676;BME280;4876;42.656;23.292;2022-12-17T05:32:01;94048.09;;;8.18;100.00
9676;BME280;4876;42.656;23.292;2022-12-17T05:34:45;94063.66;;;8.45;100.00
9676;BME280;4876;42.656;23.292;2022-12-17T05:37:30;94095.56;;;8.25;100.00
9676;BME280;4876;42.656;23.292;2022-12-17T05:40:15;94055.50;;;8.16;100.00
9676;BME280;4876;42.656;23.292;2022-12-17T05:43:02;94048.28;;;8.21;100.00
9676;BME280;4876;42.656;23.292;2022-12-17T05:45:48;94076.94;;;8.97;100.00
9676;BME280;4876;42.656;23.292;2022-12-17T05:48:32;94074.53;;;9.27;100.00
9676;BME280;4876;42.656;23.292;2022-12-17T05:51:17;94071.44;;;9.33;100.00
9676;BME280;4876;42.656;23.292;2022-12-17T05:54:01;94063.81;;;9.06;100.00
9676;BME280;4876;42.656;23.292;2022-12-17T05:56:45;94045.16;;;8.99;100.00
9676;BME280;4876;42.656;23.292;2022-12-17T05:59:30;94055.31;;;8.92;100.00
9676;BME280;4876;42.656;23.292;2022-12-17T06:02:15;94045.66;;;8.52;100.00
9676;BME280;4876;42.656;23.292;2022-12-17T06:05:00;94098.59;;;8.72;100.00
9676;BME280;4876;42.656;23.292;2022-12-17T06:07:43;94085.19;;;8.73;100.00
9676;BME280;4876;42.656;23.292;2022-12-17T06:10:27;94096.38;;;8.56;100.00
9676;BME280;4876;42.656;23.292;2022-12-17T06:13:12;94104.75;;;8.67;100.00
9676;BME280;4876;42.656;23.292;2022-12-17T06:15:57;94113.22;;;8.64;100.00
9676;BME280;4876;42.656;23.292;2022-12-17T06:18:54;94102.75;;;8.73;100.00
9676;BME280;4876;42.656;23.292;2022-12-17T06:21:38;94090.34;;;8.56;100.00
9676;BME280;4876;42.656;23.292;2022-12-17T06:24:22;94139.00;;;8.71;100.00
9676;BME280;4876;42.656;23.292;2022-12-17T06:27:07;94118.81;;;8.80;100.00
9676;BME280;4876;42.656;23.292;2022-12-17T06:29:51;94141.41;;;8.89;100.00
9676;BME280;4876;42.656;23.292;2022-12-17T06:32:35;94160.13;;;8.74;100.00
9676;BME280;4876;42.656;23.292;2022-12-17T06:35:21;94167.09;;;8.79;100.00
9676;BME280;4876;42.656;23.292;2022-12-17T06:38:17;94145.09;;;8.88;100.00
9676;BME280;4876;42.656;23.292;2022-12-17T06:41:01;94163.22;;;9.07;100.00
9676;BME280;4876;42.656;23.292;2022-12-17T06:43:46;94166.88;;;9.06;100.00
9676;BME280;4876;42.656;23.292;2022-12-17T06:46:30;94172.28;;;9.01;100.00
9676;BME280;4876;42.656;23.292;2022-12-17T06:49:14;94130.81;;;9.12;100.00
9676;BME280;4876;42.656;23.292;2022-12-17T06:52:00;94157.91;;;9.38;100.00
9676;BME280;4876;42.656;23.292;2022-12-17T06:54:44;94148.03;;;9.44;100.00
9676;BME280;4876;42.656;23.292;2022-12-17T06:57:28;94169.94;;;9.48;100.00
9676;BME280;4876;42.656;23.292;2022-12-17T07:00:13;94187.91;;;9.63;100.00
9676;BME280;4876;42.656;23.292;2022-12-17T07:02:58;94200.66;;;9.56;100.00
9676;BME280;4876;42.656;23.292;2022-12-17T07:05:42;94226.97;;;9.74;100.00
9676;BME280;4876;42.656;23.292;2022-12-17T07:08:28;94242.91;;;9.86;100.00
9676;BME280;4876;42.656;23.292;2022-12-17T07:11:12;94234.56;;;9.75;100.00
9676;BME280;4876;42.656;23.292;2022-12-17T07:13:56;94246.59;;;9.76;100.00
9676;BME280;4876;42.656;23.292;2022-12-17T07:16:41;94318.78;;;9.96;100.00
9676;BME280;4876;42.656;23.292;2022-12-17T07:19:25;94319.69;;;9.83;100.00
9676;BME280;4876;42.656;23.292;2022-12-17T07:22:09;94291.25;;;9.85;100.00
9676;BME280;4876;42.656;23.292;2022-12-17T07:24:55;94267.13;;;9.65;100.00
9676;BME280;4876;42.656;23.292;2022-12-17T07:27:39;94253.34;;;9.51;100.00
9676;BME280;4876;42.656;23.292;2022-12-17T07:30:24;94234.34;;;9.54;100.00
9676;BME280;4876;42.656;23.292;2022-12-17T07:33:08;94218.47;;;9.68;100.00
9676;BME280;4876;42.656;23.292;2022-12-17T07:35:53;94214.31;;;9.93;100.00
9676;BME280;4876;42.656;23.292;2022-12-17T07:38:38;94212.47;;;10.54;100.00
9676;BME280;4876;42.656;23.292;2022-12-17T07:41:23;94213.09;;;11.53;100.00
9676;BME280;4876;42.656;23.292;2022-12-17T07:44:08;94199.81;;;12.21;96.23
9676;BME280;4876;42.656;23.292;2022-12-17T07:46:52;94149.19;;;12.73;90.71
9676;BME280;4876;42.656;23.292;2022-12-17T07:49:36;94181.47;;;13.15;86.78
9676;BME280;4876;42.656;23.292;2022-12-17T07:52:20;94185.25;;;13.39;84.87
9676;BME280;4876;42.656;23.292;2022-12-17T07:55:16;94138.81;;;13.62;83.04
9676;BME280;4876;42.656;23.292;2022-12-17T07:58:03;94120.25;;;13.87;81.37
9676;BME280;4876;42.656;23.292;2022-12-17T08:00:47;94101.13;;;14.06;80.06
9676;BME280;4876;42.656;23.292;2022-12-17T08:03:31;94118.66;;;14.26;76.96
9676;BME280;4876;42.656;23.292;2022-12-17T08:06:16;94121.50;;;14.33;77.35
9676;BME280;4876;42.656;23.292;2022-12-17T08:09:00;94145.38;;;14.49;76.00
9676;BME280;4876;42.656;23.292;2022-12-17T08:11:44;94154.88;;;14.66;74.31
9676;BME280;4876;42.656;23.292;2022-12-17T08:14:30;94146.84;;;14.78;73.08
9676;BME280;4876;42.656;23.292;2022-12-17T08:17:14;94162.94;;;15.17;68.99
9676;BME280;4876;42.656;23.292;2022-12-17T08:19:59;94213.53;;;15.43;66.65
9676;BME280;4876;42.656;23.292;2022-12-17T08:22:43;94199.47;;;15.58;66.09
9676;BME280;4876;42.656;23.292;2022-12-17T08:25:27;94216.44;;;15.70;65.25
9676;BME280;4876;42.656;23.292;2022-12-17T08:28:11;94196.44;;;15.72;66.25
9676;BME280;4876;42.656;23.292;2022-12-17T08:30:57;94212.25;;;15.84;65.55
9676;BME280;4876;42.656;23.292;2022-12-17T08:33:41;94198.53;;;15.82;65.42
9676;BME280;4876;42.656;23.292;2022-12-17T08:36:26;94195.16;;;16.01;64.20
9676;BME280;4876;42.656;23.292;2022-12-17T08:39:10;94213.34;;;16.19;64.83
9676;BME280;4876;42.656;23.292;2022-12-17T08:41:54;94217.66;;;16.27;65.33
9676;BME280;4876;42.656;23.292;2022-12-17T08:44:41;94195.13;;;16.36;65.14
9676;BME280;4876;42.656;23.292;2022-12-17T08:47:27;94218.94;;;16.52;65.14
9676;BME280;4876;42.656;23.292;2022-12-17T08:50:11;94233.63;;;16.65;61.17
9676;BME280;4876;42.656;23.292;2022-12-17T08:52:57;94230.06;;;16.97;58.16
9676;BME280;4876;42.656;23.292;2022-12-17T08:55:41;94247.84;;;17.15;58.06
9676;BME280;4876;42.656;23.292;2022-12-17T08:58:27;94253.75;;;16.86;62.47
9676;BME280;4876;42.656;23.292;2022-12-17T09:01:11;94242.75;;;15.31;69.34
9676;BME280;4876;42.656;23.292;2022-12-17T09:03:56;94225.22;;;13.86;76.42
9676;BME280;4876;42.656;23.292;2022-12-17T09:06:41;94244.72;;;13.57;80.66
9676;BME280;4876;42.656;23.292;2022-12-17T09:09:25;94262.19;;;13.37;83.85
9676;BME280;4876;42.656;23.292;2022-12-17T09:12:09;94256.25;;;13.53;82.51
9676;BME280;4876;42.656;23.292;2022-12-17T09:14:54;94278.72;;;13.59;83.27
9676;BME280;4876;42.656;23.292;2022-12-17T09:17:38;94261.13;;;13.75;82.84
9676;BME280;4876;42.656;23.292;2022-12-17T09:20:26;94185.59;;;13.62;81.75
9676;BME280;4876;42.656;23.292;2022-12-17T09:23:14;94271.75;;;14.15;80.72
9676;BME280;4876;42.656;23.292;2022-12-17T09:25:58;94284.75;;;14.20;81.00
9676;BME280;4876;42.656;23.292;2022-12-17T09:28:43;94291.66;;;14.37;80.12
9676;BME280;4876;42.656;23.292;2022-12-17T09:31:29;94294.47;;;14.28;80.62
9676;BME280;4876;42.656;23.292;2022-12-17T09:34:13;94307.13;;;14.23;81.46
9676;BME280;4876;42.656;23.292;2022-12-17T09:36:59;94297.78;;;14.13;82.12
9676;BME280;4876;42.656;23.292;2022-12-17T09:39:58;94312.19;;;14.16;81.90
9676;BME280;4876;42.656;23.292;2022-12-17T09:42:48;94320.13;;;14.16;81.07
9676;BME280;4876;42.656;23.292;2022-12-17T09:45:39;94343.41;;;13.98;80.27
9676;BME280;4876;42.656;23.292;2022-12-17T09:48:39;94361.34;;;13.92;78.15
9676;BME280;4876;42.656;23.292;2022-12-17T09:51:28;94363.31;;;13.83;77.67
9676;BME280;4876;42.656;23.292;2022-12-17T09:54:20;94324.78;;;13.82;77.02
9676;BME280;4876;42.656;23.292;2022-12-17T09:57:12;94324.53;;;13.75;76.07
9676;BME280;4876;42.656;23.292;2022-12-17T09:59:56;94368.72;;;13.74;76.72
9676;BME280;4876;42.656;23.292;2022-12-17T10:02:43;94310.44;;;13.71;78.25
9676;BME280;4876;42.656;23.292;2022-12-17T10:05:30;94310.09;;;13.48;81.28
9676;BME280;4876;42.656;23.292;2022-12-17T10:08:18;94291.75;;;13.18;79.97
9676;BME280;4876;42.656;23.292;2022-12-17T10:11:16;94282.81;;;13.11;80.53
9676;BME280;4876;42.656;23.292;2022-12-17T10:14:03;94320.59;;;13.03;82.60
9676;BME280;4876;42.656;23.292;2022-12-17T10:16:47;94355.53;;;12.87;83.92
9676;BME280;4876;42.656;23.292;2022-12-17T10:19:35;94378.56;;;12.78;86.14
9676;BME280;4876;42.656;23.292;2022-12-17T10:22:20;94382.16;;;12.53;88.70
9676;BME280;4876;42.656;23.292;2022-12-17T10:25:05;94390.53;;;12.25;90.61
9676;BME280;4876;42.656;23.292;2022-12-17T10:27:51;94371.16;;;12.21;100.00
9676;BME280;4876;42.656;23.292;2022-12-17T10:30:35;94378.75;;;12.23;96.31
9676;BME280;4876;42.656;23.292;2022-12-17T10:33:20;94368.19;;;12.31;97.39
9676;BME280;4876;42.656;23.292;2022-12-17T10:36:19;94344.78;;;12.00;96.04
9676;BME280;4876;42.656;23.292;2022-12-17T10:39:04;94339.75;;;11.69;97.99
9676;BME280;4876;42.656;23.292;2022-12-17T10:41:49;94348.88;;;11.72;96.74
9676;BME280;4876;42.656;23.292;2022-12-17T10:44:36;94334.66;;;11.64;98.39
9676;BME280;4876;42.656;23.292;2022-12-17T10:47:23;94351.84;;;11.70;96.83
9676;BME280;4876;42.656;23.292;2022-12-17T10:50:09;94336.03;;;11.70;97.15
9676;BME280;4876;42.656;23.292;2022-12-17T10:52:54;94313.88;;;11.71;98.39
9676;BME280;4876;42.656;23.292;2022-12-17T10:55:46;94303.00;;;11.73;97.94
9676;BME280;4876;42.656;23.292;2022-12-17T10:58:31;94296.66;;;11.82;95.94
9676;BME280;4876;42.656;23.292;2022-12-17T11:01:21;94288.19;;;11.98;96.49
9676;BME280;4876;42.656;23.292;2022-12-17T11:04:24;94245.28;;;12.18;92.18
9676;BME280;4876;42.656;23.292;2022-12-17T11:07:13;94209.63;;;12.33;89.65
9676;BME280;4876;42.656;23.292;2022-12-17T11:10:00;94223.13;;;12.52;87.17
9676;BME280;4876;42.656;23.292;2022-12-17T11:12:49;94222.84;;;12.66;85.22
9676;BME280;4876;42.656;23.292;2022-12-17T11:15:37;94208.31;;;12.93;82.02
9676;BME280;4876;42.656;23.292;2022-12-17T11:18:28;94219.44;;;13.11;79.64
9676;BME280;4876;42.656;23.292;2022-12-17T11:21:16;94214.75;;;13.41;76.48
9676;BME280;4876;42.656;23.292;2022-12-17T11:24:03;94248.31;;;13.53;77.71
9676;BME280;4876;42.656;23.292;2022-12-17T11:26:50;94260.69;;;13.73;75.41
9676;BME280;4876;42.656;23.292;2022-12-17T11:29:36;94268.63;;;13.85;73.93
9676;BME280;4876;42.656;23.292;2022-12-17T11:32:35;94270.56;;;14.00;72.81
9676;BME280;4876;42.656;23.292;2022-12-17T11:35:29;94282.03;;;14.17;71.37
9676;BME280;4876;42.656;23.292;2022-12-17T11:38:28;94303.81;;;14.14;73.03
9676;BME280;4876;42.656;23.292;2022-12-17T11:41:19;94277.41;;;13.89;73.31
9676;BME280;4876;42.656;23.292;2022-12-17T11:44:11;94312.75;;;14.09;74.58
9676;BME280;4876;42.656;23.292;2022-12-17T11:47:05;94314.75;;;14.00;74.69
9676;BME280;4876;42.656;23.292;2022-12-17T11:49:58;94339.66;;;13.99;75.66
9676;BME280;4876;42.656;23.292;2022-12-17T11:52:52;94337.09;;;14.02;75.64
9676;BME280;4876;42.656;23.292;2022-12-17T11:55:45;94325.13;;;13.93;77.19
9676;BME280;4876;42.656;23.292;2022-12-17T11:58:38;94314.88;;;13.79;79.42
9676;BME280;4876;42.656;23.292;2022-12-17T12:01:28;94330.06;;;13.82;80.92
9676;BME280;4876;42.656;23.292;2022-12-17T12:04:24;94306.66;;;13.35;87.10
9676;BME280;4876;42.656;23.292;2022-12-17T12:07:21;94335.84;;;12.64;97.92
9676;BME280;4876;42.656;23.292;2022-12-17T12:10:14;94349.59;;;12.90;99.13
9676;BME280;4876;42.656;23.292;2022-12-17T12:13:11;94352.66;;;12.80;100.00
9676;BME280;4876;42.656;23.292;2022-12-17T12:16:05;94340.94;;;12.69;98.35
9676;BME280;4876;42.656;23.292;2022-12-17T12:18:59;94363.31;;;12.63;100.00
9676;BME280;4876;42.656;23.292;2022-12-17T12:21:54;94358.75;;;12.51;98.63
9676;BME280;4876;42.656;23.292;2022-12-17T12:24:59;94361.44;;;12.43;98.17
9676;BME280;4876;42.656;23.292;2022-12-17T12:27:57;94361.63;;;12.08;99.95
9676;BME280;4876;42.656;23.292;2022-12-17T12:30:50;94360.53;;;12.09;100.00
9676;BME280;4876;42.656;23.292;2022-12-17T12:33:47;94356.44;;;12.20;100.00
9676;BME280;4876;42.656;23.292;2022-12-17T12:36:33;94367.31;;;12.19;100.00
9676;BME280;4876;42.656;23.292;2022-12-17T12:39:27;94354.06;;;12.27;100.00
9676;BME280;4876;42.656;23.292;2022-12-17T12:42:18;94345.22;;;12.53;100.00
9676;BME280;4876;42.656;23.292;2022-12-17T12:45:39;94353.13;;;12.53;99.22
9676;BME280;4876;42.656;23.292;2022-12-17T12:48:38;94334.94;;;12.60;97.76
9676;BME280;4876;42.656;23.292;2022-12-17T12:51:27;94336.88;;;12.51;96.62
9676;BME280;4876;42.656;23.292;2022-12-17T12:54:24;94343.44;;;12.45;96.75
9676;BME280;4876;42.656;23.292;2022-12-17T12:57:25;94348.25;;;12.43;98.89
9676;BME280;4876;42.656;23.292;2022-12-17T13:00:21;94351.31;;;12.24;100.00
9676;BME280;4876;42.656;23.292;2022-12-17T13:03:08;94338.91;;;12.24;100.00
9676;BME280;4876;42.656;23.292;2022-12-17T13:05:59;94356.53;;;12.32;100.00
9676;BME280;4876;42.656;23.292;2022-12-17T13:08:26;94352.56;;;12.47;98.91
9676;BME280;4876;42.656;23.292;2022-12-17T13:10:53;94341.84;;;12.23;100.00
9676;BME280;4876;42.656;23.292;2022-12-17T13:13:31;94346.22;;;12.19;100.00
9676;BME280;4876;42.656;23.292;2022-12-17T13:16:03;94342.84;;;12.39;100.00
9676;BME280;4876;42.656;23.292;2022-12-17T13:18:44;94353.56;;;12.34;100.00
9676;BME280;4876;42.656;23.292;2022-12-17T13:21:24;94349.47;;;12.24;100.00
9676;BME280;4876;42.656;23.292;2022-12-17T13:23:51;94356.03;;;12.39;100.00
9676;BME280;4876;42.656;23.292;2022-12-17T13:26:21;94368.00;;;12.36;100.00
9676;BME280;4876;42.656;23.292;2022-12-17T13:29:01;94376.84;;;12.61;100.00
9676;BME280;4876;42.656;23.292;2022-12-17T13:31:30;94366.97;;;12.71;97.58
9676;BME280;4876;42.656;23.292;2022-12-17T13:34:15;94363.44;;;12.66;98.38
9676;BME280;4876;42.656;23.292;2022-12-17T13:36:53;94366.31;;;12.53;99.17
9676;BME280;4876;42.656;23.292;2022-12-17T13:39:32;94372.63;;;12.39;100.00
9676;BME280;4876;42.656;23.292;2022-12-17T13:42:00;94382.47;;;12.30;100.00
9676;BME280;4876;42.656;23.292;2022-12-17T13:44:30;94372.41;;;12.24;100.00
9676;BME280;4876;42.656;23.292;2022-12-17T13:47:01;94380.84;;;12.08;100.00
9676;BME280;4876;42.656;23.292;2022-12-17T13:49:30;94381.88;;;11.87;100.00
9676;BME280;4876;42.656;23.292;2022-12-17T13:52:01;94378.34;;;11.74;100.00
9676;BME280;4876;42.656;23.292;2022-12-17T13:54:28;94380.50;;;11.72;100.00
9676;BME280;4876;42.656;23.292;2022-12-17T13:57:05;94385.03;;;11.63;100.00
9676;BME280;4876;42.656;23.292;2022-12-17T13:59:32;94378.78;;;11.76;100.00
9676;BME280;4876;42.656;23.292;2022-12-17T14:01:59;94379.97;;;11.96;100.00
9676;BME280;4876;42.656;23.292;2022-12-17T14:04:34;94383.06;;;11.98;100.00
9676;BME280;4876;42.656;23.292;2022-12-17T14:07:03;94362.63;;;11.95;100.00
9676;BME280;4876;42.656;23.292;2022-12-17T14:09:34;94385.91;;;11.93;100.00
9676;BME280;4876;42.656;23.292;2022-12-17T14:12:03;94383.50;;;11.53;100.00
9676;BME280;4876;42.656;23.292;2022-12-17T14:14:52;94407.03;;;11.58;100.00
9676;BME280;4876;42.656;23.292;2022-12-17T14:17:22;94400.78;;;11.71;100.00
9676;BME280;4876;42.656;23.292;2022-12-17T14:19:56;94402.03;;;11.74;100.00
9676;BME280;4876;42.656;23.292;2022-12-17T14:22:30;94397.75;;;11.52;100.00
9676;BME280;4876;42.656;23.292;2022-12-17T14:24:59;94398.56;;;11.44;100.00
9676;BME280;4876;42.656;23.292;2022-12-17T14:27:30;94410.63;;;11.45;100.00
9676;BME280;4876;42.656;23.292;2022-12-17T14:29:58;94414.97;;;11.32;100.00
9676;BME280;4876;42.656;23.292;2022-12-17T14:32:30;94423.50;;;11.38;100.00
9676;BME280;4876;42.656;23.292;2022-12-17T14:34:59;94416.97;;;11.44;100.00
9676;BME280;4876;42.656;23.292;2022-12-17T14:37:27;94416.22;;;11.35;100.00
9676;BME280;4876;42.656;23.292;2022-12-17T14:39:59;94413.91;;;11.24;100.00
9676;BME280;4876;42.656;23.292;2022-12-17T14:42:27;94412.34;;;11.23;100.00
9676;BME280;4876;42.656;23.292;2022-12-17T14:44:58;94415.47;;;11.25;100.00